Latest Weather Observations for Beaudesert AWS

IDQ60901

Issued at 4:15 pm EST Wednesday 22 October 2014 (issued every 10 minutes, with the page automatically refreshed every 10 minutes)

About weather observations | Map of Brisbane area stations | Latest observations for Brisbane area | Other Formats
Station Details ID: 040983 Name: BEAUDESERT DRUMLEY STREET Lat: -27.97 Lon: 152.99 Height: 47.81 m
Data from the previous 72 hours. | See also: Recent months at Beaudesert AWS
Date/Time
EST
Tmp

°C
App
Tmp
°C
Dew
Point
°C
Rel
Hum
%
Delta-T

°C
Wind Press
QNH
hPa
Press
MSL
hPa
Rain
since
9 am
mm
Dir
 
Spd
km/h
Gust
km/h
Spd
kts
Gust
kts
22/04:00pm 23.0 19.8 10.1 44 7.0 ENE 17 30 9 16 1021.6 1021.5 0.0
22/03:30pm 24.0 21.3 10.3 42 7.6 ENE 15 24 8 13 1021.7 1021.6 0.0
22/03:00pm 23.6 21.2 9.9 42 7.5 E 13 20 7 11 1021.7 1021.6 0.0
22/02:30pm 24.3 22.4 10.6 42 7.6 E 11 20 6 11 1021.8 1021.7 0.0
22/02:00pm 23.8 22.0 9.4 40 7.8 ESE 9 24 5 13 1022.1 1022.0 0.0
22/01:30pm 24.1 21.8 8.9 38 8.2 E 11 20 6 11 1022.4 1022.3 0.0
22/01:00pm 24.2 21.9 9.0 38 8.2 E 11 19 6 10 1022.6 1022.5 0.0
22/12:30pm 25.2 22.8 8.7 35 8.9 S 11 20 6 11 1023.2 1023.0 0.0
22/12:00pm 23.3 21.8 8.6 39 7.8 E 6 13 3 7 1023.8 1023.6 0.0
22/11:30am 23.5 21.7 9.5 41 7.6 SSE 9 15 5 8 1024.3 1024.1 0.0
22/11:00am 23.1 21.3 9.5 42 7.3 SSW 9 19 5 10 1024.8 1024.6 0.0
22/10:30am 22.7 20.0 10.2 45 6.8 SW 15 19 8 10 1025.1 1024.9 0.0
22/10:00am 22.4 19.7 10.2 46 6.6 S 15 22 8 12 1025.6 1025.4 0.0
22/09:30am 21.1 18.3 11.2 53 5.5 SSW 17 24 9 13 1025.8 1025.6 0.0
22/09:00am 20.5 18.9 11.4 56 5.0 SSW 11 19 6 10 1026.0 1025.8 0.0
22/08:30am 19.8 18.1 11.3 58 4.7 SSW 11 22 6 12 1026.0 1025.8 0.0
22/08:00am 19.4 17.5 11.9 62 4.1 SSW 13 19 7 10 1026.0 1025.8 0.0
22/07:30am 19.0 17.6 12.3 65 3.7 S 11 19 6 10 1025.9 1025.7 0.0
22/07:00am 17.6 16.7 12.5 72 2.8 SSW 9 15 5 8 1025.8 1025.6 0.0
22/06:30am 16.0 15.6 12.4 79 2.0 SSW 6 9 3 5 1025.9 1025.7 0.0
22/06:00am 15.7 15.2 12.1 79 2.0 SSW 6 7 3 4 1025.6 1025.4 0.0
22/05:30am 14.9 14.7 11.9 82 1.6 SSE 4 6 2 3 1025.3 1025.1 0.0
22/05:00am 13.8 13.4 11.0 83 1.5 S 4 6 2 3 1025.2 1025.0 0.0
22/04:30am 14.8 14.1 11.4 80 1.8 S 6 7 3 4 1025.1 1024.9 0.0
22/04:00am 14.6 13.9 11.4 81 1.7 SSE 6 9 3 5 1025.1 1024.9 0.0
22/03:30am 14.5 14.7 11.7 83 1.5 SE 2 6 1 3 1025.1 1024.9 0.0
22/03:00am 13.8 14.0 10.6 81 1.7 CALM 0 2 0 1 1025.2 1025.0 0.0
22/02:30am 14.9 15.4 11.5 80 1.8 CALM 0 0 0 0 1025.5 1025.3 0.0
22/02:00am 14.3 14.7 11.1 81 1.7 CALM 0 0 0 0 1025.7 1025.5 0.0
22/01:30am 14.9 15.3 11.1 78 2.0 CALM 0 0 0 0 1026.1 1025.9 0.0
22/01:00am 14.4 14.7 10.8 79 1.9 CALM 0 4 0 2 1026.4 1026.2 0.0
22/12:30am 13.4 13.2 10.4 82 1.6 NW 2 4 1 2 1026.9 1026.7 0.0
22/12:00am 13.8 14.0 10.6 81 1.7 NW 0 0 0 0 1027.3 1027.1 0.0
 
Date/Time
EST
Tmp

°C
App
Tmp
°C
Dew
Point
°C
Rel
Hum
%
Delta-T

°C
Wind Press
QNH
hPa
Press
MSL
hPa
Rain
since
9 am
mm
Dir
 
Spd
km/h
Gust
km/h
Spd
kts
Gust
kts
21/11:30pm 13.8 13.3 10.8 82 1.6 NNE 4 4 2 2 1027.5 1027.3 0.0
21/11:00pm 12.9 12.8 9.4 79 1.8 CALM 0 0 0 0 1027.8 1027.6 0.0
21/10:30pm 14.2 13.8 9.8 75 2.3 NE 2 4 1 2 1027.9 1027.7 0.0
21/10:00pm 15.2 14.9 10.0 71 2.7 NE 2 4 1 2 1028.0 1027.8 0.0
21/09:30pm 15.7 15.4 10.2 70 2.9 S 2 4 1 2 1028.1 1027.9 0.0
21/09:00pm 16.0 15.0 10.3 69 3.0 ESE 6 7 3 4 1028.0 1027.8 0.0
21/08:30pm 16.8 16.3 10.6 67 3.3 S 4 6 2 3 1027.7 1027.5 0.0
21/08:00pm 16.8 15.8 10.4 66 3.4 SSE 6 9 3 5 1027.7 1027.5 0.0
21/07:30pm 18.2 17.2 11.0 63 3.9 SE 7 11 4 6 1027.3 1027.1 0.0
21/07:00pm 18.5 17.4 10.8 61 4.1 E 7 11 4 6 1026.9 1026.7 0.0
21/06:30pm 19.5 17.9 10.2 55 5.0 SE 9 15 5 8 1026.6 1026.4 0.0
21/06:00pm 20.6 18.3 10.4 52 5.5 SE 13 22 7 12 1026.2 1026.0 0.0
21/05:30pm 21.6 18.2 10.4 49 6.1 S 19 24 10 13 1025.8 1025.6 0.0
21/05:00pm 22.4 18.7 10.2 46 6.6 S 20 33 11 18 1025.5 1025.3 0.0
21/04:30pm 22.9 19.9 10.7 46 6.7 S 17 26 9 14 1025.1 1024.9 0.0
21/04:00pm 23.6 20.4 11.3 46 6.9 S 19 26 10 14 1025.0 1024.8 0.0
21/03:30pm 23.5 21.4 12.5 50 6.3 SSE 15 24 8 13 1025.1 1024.9 0.0
21/03:00pm 22.6 19.4 12.0 51 6.0 S 20 32 11 17 1025.2 1025.0 0.0
21/02:30pm 23.2 21.1 12.5 51 6.1 SE 15 26 8 14 1025.1 1024.9 0.0
21/02:00pm 23.5 20.4 12.2 49 6.4 SSE 20 33 11 18 1025.1 1024.9 0.0
21/01:30pm 24.7 22.6 12.3 46 7.1 SE 15 22 8 12 1025.1 1024.9 0.0
21/01:00pm 24.9 22.5 11.5 43 7.6 SE 15 22 8 12 1025.3 1025.1 0.0
21/12:30pm 25.4 23.6 10.8 40 8.2 S 11 22 6 12 1025.6 1025.4 0.0
21/12:00pm 24.7 22.4 10.6 41 7.8 S 13 22 7 12 1026.1 1025.9 0.0
21/11:30am 23.9 21.3 10.6 43 7.4 S 15 26 8 14 1026.6 1026.4 0.0
21/11:00am 24.6 22.5 11.2 43 7.5 SSW 13 22 7 12 1026.9 1026.7 0.0
21/10:30am 23.5 21.4 12.5 50 6.3 S 15 24 8 13 1027.1 1026.9 0.0
21/10:00am 22.8 21.1 12.4 52 5.9 SSE 13 20 7 11 1027.3 1027.1 0.0
21/09:30am 22.6 21.3 12.5 53 5.8 SSE 11 19 6 10 1027.3 1027.1 0.0
21/09:00am 22.8 20.7 12.4 52 5.9 S 15 24 8 13 1027.4 1027.2 0.0
21/08:30am 22.0 20.3 12.5 54 5.4 S 13 24 7 13 1027.6 1027.4 0.0
21/08:00am 21.5 19.6 12.9 58 4.9 SSE 15 26 8 14 1027.4 1027.2 0.0
21/07:30am 20.9 18.6 13.1 61 4.5 SSE 17 22 9 12 1027.0 1026.8 0.0
21/07:00am 20.7 20.3 14.1 66 3.8 S 9 17 5 9 1026.7 1026.5 0.0
21/06:30am 19.6 19.9 14.6 73 2.9 SSW 6 9 3 5 1026.5 1026.3 0.0
21/06:00am 18.6 18.8 14.3 76 2.5 S 6 9 3 5 1026.3 1026.1 0.0
21/05:30am 18.6 19.1 14.1 75 2.6 SSW 4 7 2 4 1026.0 1025.8 0.0
21/05:00am 18.6 18.6 14.3 76 2.5 S 7 11 4 6 1025.7 1025.5 0.0
21/04:30am 18.2 19.2 14.3 78 2.2 W 2 6 1 3 1025.6 1025.4 0.0
21/04:00am 18.2 18.4 14.3 78 2.2 S 6 11 3 6 1025.3 1025.1 0.0
21/03:30am 17.0 17.5 14.1 83 1.7 S 4 6 2 3 1025.4 1025.2 0.0
21/03:00am 15.9 16.8 13.0 83 1.6 CALM 0 0 0 0 1025.3 1025.1 0.0
21/02:30am 15.5 16.3 12.6 83 1.6 CALM 0 2 0 1 1025.4 1025.2 0.0
21/02:00am 15.1 15.9 12.6 85 1.4 CALM 0 4 0 2 1025.6 1025.4 0.0
21/01:30am 14.8 15.6 12.7 87 1.2 CALM 0 0 0 0 1025.8 1025.6 0.0
21/01:00am 13.4 13.3 10.8 84 1.4 ENE 2 4 1 2 1026.1 1025.9 0.0
21/12:30am 14.0 14.1 11.5 85 1.3 ENE 2 4 1 2 1026.3 1026.1 0.0
21/12:00am 14.8 15.3 11.6 81 1.7 CALM 0 0 0 0 1026.5 1026.3 0.0
 
Date/Time
EST
Tmp

°C
App
Tmp
°C
Dew
Point
°C
Rel
Hum
%
Delta-T

°C
Wind Press
QNH
hPa
Press
MSL
hPa
Rain
since
9 am
mm
Dir
 
Spd
km/h
Gust
km/h
Spd
kts
Gust
kts
20/11:30pm 14.4 14.5 11.4 82 1.6 NNE 2 4 1 2 1026.8 1026.6 0.0
20/11:00pm 14.0 14.3 10.8 81 1.7 CALM 0 0 0 0 1026.9 1026.7 0.0
20/10:30pm 16.6 16.3 11.5 72 2.8 E 4 6 2 3 1026.9 1026.7 0.0
20/10:00pm 15.0 15.2 11.8 81 1.7 SSE 2 4 1 2 1026.9 1026.7 0.0
20/09:30pm 15.7 15.5 11.7 77 2.2 WSW 4 6 2 3 1026.9 1026.7 0.0
20/09:00pm 17.5 17.7 12.0 70 3.0 E 2 4 1 2 1026.8 1026.6 0.0
20/08:30pm 17.7 17.4 11.5 67 3.4 SSE 4 6 2 3 1026.8 1026.6 0.0
20/08:00pm 19.2 18.5 12.0 63 4.0 ESE 7 11 4 6 1026.3 1026.1 0.0
20/07:30pm 20.3 18.2 12.3 60 4.5 E 15 26 8 14 1025.6 1025.4 0.0
20/07:00pm 20.6 17.6 12.1 58 4.7 E 19 26 10 14 1024.9 1024.7 0.0
20/06:30pm 21.3 21.0 11.6 54 5.4 ESE 4 11 2 6 1024.3 1024.1 0.0
20/06:00pm 22.4 21.7 11.5 50 6.1 E 6 11 3 6 1023.4 1023.2 0.0
20/05:30pm 24.0 23.2 11.7 46 7.0 ENE 7 17 4 9 1022.9 1022.7 0.0
20/05:00pm 25.4 23.5 11.9 43 7.7 ENE 13 22 7 12 1022.2 1022.1 0.0
20/04:30pm 26.6 25.1 11.9 40 8.5 NE 11 24 6 13 1021.6 1021.5 0.0
20/04:00pm 27.2 25.4 12.0 38 8.8 NNE 13 24 7 13 1021.2 1021.1 0.0
20/03:30pm 27.2 24.9 11.7 38 8.9 ENE 15 24 8 13 1021.1 1021.0 0.0
20/03:00pm 28.3 26.0 11.8 36 9.5 ENE 15 26 8 14 1020.7 1020.6 0.0
20/02:30pm 29.1 25.5 10.7 32 10.5 E 20 30 11 16 1020.7 1020.6 0.0
20/02:00pm 28.9 28.2 10.1 31 10.6 S 4 7 2 4 1020.9 1020.8 0.0
20/01:30pm 27.8 26.5 9.1 31 10.3 ESE 6 9 3 5 1021.3 1021.2 0.0
20/01:00pm 27.8 27.1 10.1 33 9.9 S 4 7 2 4 1021.9 1021.8 0.0
20/12:30pm 26.9 25.6 9.3 33 9.7 WNW 6 15 3 8 1022.5 1022.4 0.0
20/12:00pm 26.7 25.7 10.4 36 9.1 NNW 6 11 3 6 1023.0 1022.8 0.0
20/11:30am 25.9 24.8 10.1 37 8.8 NE 6 13 3 7 1023.6 1023.4 0.0
20/11:00am 24.8 23.5 11.4 43 7.5 W 9 17 5 9 1024.2 1024.0 0.0
20/10:30am 23.8 22.9 10.8 44 7.2 W 6 9 3 5 1024.7 1024.5 0.0
20/10:00am 23.3 22.5 11.0 46 6.8 WNW 6 11 3 6 1025.2 1025.0 0.0
20/09:30am 22.5 21.7 10.9 48 6.4 N 6 11 3 6 1025.6 1025.4 0.0
20/09:00am 21.8 21.0 11.2 51 5.9 NNW 6 9 3 5 1025.8 1025.6 0.0
20/08:30am 21.1 21.3 11.7 55 5.2 NNW 2 6 1 3 1025.8 1025.6 0.0
20/08:00am 19.5 19.6 11.5 60 4.4 W 2 6 1 3 1025.9 1025.7 0.0
20/07:30am 17.4 17.7 10.8 65 3.5 CALM 0 4 0 2 1025.9 1025.7 0.0
20/07:00am 15.7 15.8 10.0 69 3.0 CALM 0 0 0 0 1025.9 1025.7 0.0
20/06:30am 12.3 11.8 9.5 83 1.4 SSW 2 4 1 2 1025.8 1025.6 0.0
20/06:00am 11.6 11.4 9.0 84 1.3 CALM 0 2 0 1 1025.6 1025.4 0.0
20/05:30am 10.4 10.1 8.8 90 0.8 CALM 0 0 0 0 1025.3 1025.1 0.0
20/05:00am 10.1 9.8 8.5 90 0.8 CALM 0 0 0 0 1025.2 1025.0 0.0
20/04:30am 10.7 10.5 9.0 89 0.8 CALM 0 0 0 0 1025.1 1024.9 0.0
20/04:00am 10.7 10.4 8.6 87 1.0 CALM 0 0 0 0 1025.0 1024.8 0.0
20/03:30am 11.2 11.0 8.9 86 1.1 CALM 0 2 0 1 1024.9 1024.7 0.0
20/03:00am 11.3 11.1 9.2 87 1.0 CALM 0 0 0 0 1024.9 1024.7 0.0
20/02:30am 11.4 11.3 9.5 88 1.0 CALM 0 0 0 0 1025.0 1024.8 0.0
20/02:00am 10.8 10.5 8.7 87 1.0 CALM 0 0 0 0 1025.3 1025.1 0.0
20/01:30am 11.5 11.0 9.2 86 1.2 S 2 4 1 2 1025.5 1025.3 0.0
20/01:00am 11.0 10.8 8.9 87 1.0 CALM 0 0 0 0 1025.9 1025.7 0.0
20/12:30am 11.4 11.2 9.1 86 1.2 CALM 0 0 0 0 1026.2 1026.0 0.0
20/12:00am 11.1 10.8 8.7 85 1.2 CALM 0 0 0 0 1026.4 1026.2 0.0
 
Date/Time
EST
Tmp

°C
App
Tmp
°C
Dew
Point
°C
Rel
Hum
%
Delta-T

°C
Wind Press
QNH
hPa
Press
MSL
hPa
Rain
since
9 am
mm
Dir
 
Spd
km/h
Gust
km/h
Spd
kts
Gust
kts
19/11:30pm 11.8 11.8 9.7 87 1.1 CALM 0 0 0 0 1026.6 1026.4 0.0
19/11:00pm 11.9 11.7 9.1 83 1.4 CALM 0 0 0 0 1026.9 1026.7 0.0
19/10:30pm 13.0 12.9 9.4 79 1.8 CALM 0 2 0 1 1026.9 1026.7 0.0
19/10:00pm 13.0 12.6 8.3 73 2.3 CALM 0 0 0 0 1026.8 1026.6 0.0
19/09:30pm 14.9 15.0 10.1 73 2.5 CALM 0 4 0 2 1026.7 1026.5 0.0
19/09:00pm 14.9 14.8 9.3 69 2.9 CALM 0 0 0 0 1026.5 1026.3 0.0
19/08:30pm 16.4 15.9 9.3 63 3.7 NNW 2 6 1 3 1026.3 1026.1 0.0
19/08:00pm 18.1 16.9 9.7 58 4.4 NNW 6 7 3 4 1025.9 1025.7 0.0
19/07:30pm 18.7 17.9 9.8 56 4.7 NE 4 9 2 5 1025.6 1025.4 0.0
19/07:00pm 19.0 17.7 9.8 55 4.9 E 7 15 4 8 1025.2 1025.0 0.0
19/06:30pm 19.4 17.3 9.9 54 5.1 ENE 11 19 6 10 1024.7 1024.5 0.0
19/06:00pm 20.2 17.8 10.0 52 5.5 E 13 22 7 12 1024.2 1024.0 0.0
19/05:30pm 21.4 18.6 9.9 48 6.2 ENE 15 22 8 12 1023.8 1023.6 0.0
19/05:00pm 22.4 19.2 9.9 45 6.8 E 17 26 9 14 1023.4 1023.2 0.0
19/04:30pm 23.7 20.6 10.4 43 7.3 ENE 17 24 9 13 1022.9 1022.7 0.0

Latest Capital City Observations: Canberra | Sydney | Melbourne | Brisbane | Adelaide | Perth | Hobart | Darwin

Other Formats:

Comma delimited format used in spreadsheet applications
http://www.bom.gov.au/fwo/IDQ60901/IDQ60901.95575.axf

JavaScript Object Notation format (JSON) in row-major order
http://www.bom.gov.au/fwo/IDQ60901/IDQ60901.95575.json